sensor_id;sensor_type;location;lat;lon;timestamp;temperature;humidity
74081;SHT31;62438;52.228;6.864;2023-02-28T00:01:55;0.44;85.29
74081;SHT31;62438;52.228;6.864;2023-02-28T00:03:56;0.56;85.02
74081;SHT31;62438;52.228;6.864;2023-02-28T00:05:56;0.54;86.57
74081;SHT31;62438;52.228;6.864;2023-02-28T00:07:57;0.48;86.44
74081;SHT31;62438;52.228;6.864;2023-02-28T00:09:57;0.53;85.18
74081;SHT31;62438;52.228;6.864;2023-02-28T00:11:58;0.53;85.36
74081;SHT31;62438;52.228;6.864;2023-02-28T00:13:58;0.51;86.85
74081;SHT31;62438;52.228;6.864;2023-02-28T00:16:04;0.51;86.41
74081;SHT31;62438;52.228;6.864;2023-02-28T00:18:05;0.50;86.84
74081;SHT31;62438;52.228;6.864;2023-02-28T00:20:07;0.50;87.11
74081;SHT31;62438;52.228;6.864;2023-02-28T00:22:11;0.53;86.94
74081;SHT31;62438;52.228;6.864;2023-02-28T00:24:12;0.60;85.96
74081;SHT31;62438;52.228;6.864;2023-02-28T00:26:12;0.54;87.80
74081;SHT31;62438;52.228;6.864;2023-02-28T00:28:13;0.56;85.96
74081;SHT31;62438;52.228;6.864;2023-02-28T00:30:18;0.58;86.41
74081;SHT31;62438;52.228;6.864;2023-02-28T00:32:19;0.56;86.57
74081;SHT31;62438;52.228;6.864;2023-02-28T00:34:19;0.58;86.13
74081;SHT31;62438;52.228;6.864;2023-02-28T00:36:20;0.62;86.66
74081;SHT31;62438;52.228;6.864;2023-02-28T00:38:20;0.58;87.20
74081;SHT31;62438;52.228;6.864;2023-02-28T00:40:21;0.58;86.70
74081;SHT31;62438;52.228;6.864;2023-02-28T00:42:21;0.58;86.81
74081;SHT31;62438;52.228;6.864;2023-02-28T00:44:21;0.58;87.93
74081;SHT31;62438;52.228;6.864;2023-02-28T00:46:22;0.58;87.59
74081;SHT31;62438;52.228;6.864;2023-02-28T00:48:22;0.57;87.38
74081;SHT31;62438;52.228;6.864;2023-02-28T00:50:23;0.58;87.32
74081;SHT31;62438;52.228;6.864;2023-02-28T00:52:23;0.61;87.30
74081;SHT31;62438;52.228;6.864;2023-02-28T00:54:24;0.60;87.10
74081;SHT31;62438;52.228;6.864;2023-02-28T00:56:25;0.65;86.31
74081;SHT31;62438;52.228;6.864;2023-02-28T00:58:25;0.67;86.51
74081;SHT31;62438;52.228;6.864;2023-02-28T01:00:26;0.64;86.97
74081;SHT31;62438;52.228;6.864;2023-02-28T01:02:26;0.65;86.48
74081;SHT31;62438;52.228;6.864;2023-02-28T01:04:27;0.67;86.63
74081;SHT31;62438;52.228;6.864;2023-02-28T01:06:27;0.68;86.49
74081;SHT31;62438;52.228;6.864;2023-02-28T01:08:27;0.67;87.06
74081;SHT31;62438;52.228;6.864;2023-02-28T01:10:28;0.68;87.15
74081;SHT31;62438;52.228;6.864;2023-02-28T01:12:31;0.74;85.65
74081;SHT31;62438;52.228;6.864;2023-02-28T01:14:31;0.82;84.06
74081;SHT31;62438;52.228;6.864;2023-02-28T01:16:32;0.95;83.69
74081;SHT31;62438;52.228;6.864;2023-02-28T01:18:32;1.02;83.72
74081;SHT31;62438;52.228;6.864;2023-02-28T01:20:33;1.10;82.74
74081;SHT31;62438;52.228;6.864;2023-02-28T01:22:34;1.09;82.71
74081;SHT31;62438;52.228;6.864;2023-02-28T01:24:34;1.13;82.12
74081;SHT31;62438;52.228;6.864;2023-02-28T01:26:35;1.10;82.26
74081;SHT31;62438;52.228;6.864;2023-02-28T01:28:36;1.13;82.08
74081;SHT31;62438;52.228;6.864;2023-02-28T01:30:36;1.13;82.27
74081;SHT31;62438;52.228;6.864;2023-02-28T01:32:37;1.10;82.08
74081;SHT31;62438;52.228;6.864;2023-02-28T01:34:37;1.19;81.81
74081;SHT31;62438;52.228;6.864;2023-02-28T01:36:37;1.15;82.86
74081;SHT31;62438;52.228;6.864;2023-02-28T01:38:38;1.12;81.94
74081;SHT31;62438;52.228;6.864;2023-02-28T01:40:39;1.10;82.06
74081;SHT31;62438;52.228;6.864;2023-02-28T01:42:39;1.05;82.82
74081;SHT31;62438;52.228;6.864;2023-02-28T01:45:03;1.00;82.86
74081;SHT31;62438;52.228;6.864;2023-02-28T01:47:05;1.03;81.64
74081;SHT31;62438;52.228;6.864;2023-02-28T01:49:10;1.08;82.09
74081;SHT31;62438;52.228;6.864;2023-02-28T01:51:22;1.10;81.55
74081;SHT31;62438;52.228;6.864;2023-02-28T01:53:29;1.13;82.83
74081;SHT31;62438;52.228;6.864;2023-02-28T01:55:31;1.08;82.16
74081;SHT31;62438;52.228;6.864;2023-02-28T01:57:35;1.09;81.79
74081;SHT31;62438;52.228;6.864;2023-02-28T01:59:39;1.05;81.89
74081;SHT31;62438;52.228;6.864;2023-02-28T02:01:45;1.06;83.93
74081;SHT31;62438;52.228;6.864;2023-02-28T02:03:45;1.08;82.67
74081;SHT31;62438;52.228;6.864;2023-02-28T02:05:46;1.03;82.33
74081;SHT31;62438;52.228;6.864;2023-02-28T02:07:51;1.06;83.61
74081;SHT31;62438;52.228;6.864;2023-02-28T02:12:17;1.00;83.71
74081;SHT31;62438;52.228;6.864;2023-02-28T02:14:40;0.96;84.24
74081;SHT31;62438;52.228;6.864;2023-02-28T02:19:30;0.95;83.91
74081;SHT31;62438;52.228;6.864;2023-02-28T02:37:57;0.93;83.48
74081;SHT31;62438;52.228;6.864;2023-02-28T02:40:13;0.87;84.25
74081;SHT31;62438;52.228;6.864;2023-02-28T02:42:20;0.89;85.76
74081;SHT31;62438;52.228;6.864;2023-02-28T02:44:24;0.91;84.98
74081;SHT31;62438;52.228;6.864;2023-02-28T02:46:33;0.92;85.42
74081;SHT31;62438;52.228;6.864;2023-02-28T02:48:36;0.89;85.58
74081;SHT31;62438;52.228;6.864;2023-02-28T02:50:45;0.87;85.80
74081;SHT31;62438;52.228;6.864;2023-02-28T02:52:51;0.84;86.00
74081;SHT31;62438;52.228;6.864;2023-02-28T02:54:54;0.85;85.63
74081;SHT31;62438;52.228;6.864;2023-02-28T02:57:05;0.82;85.74
74081;SHT31;62438;52.228;6.864;2023-02-28T02:59:09;0.82;85.74
74081;SHT31;62438;52.228;6.864;2023-02-28T03:01:16;0.79;85.74
74081;SHT31;62438;52.228;6.864;2023-02-28T03:03:26;0.78;85.44
74081;SHT31;62438;52.228;6.864;2023-02-28T03:05:35;0.77;85.31
74081;SHT31;62438;52.228;6.864;2023-02-28T03:07:39;0.77;85.26
74081;SHT31;62438;52.228;6.864;2023-02-28T03:09:40;0.78;85.32
74081;SHT31;62438;52.228;6.864;2023-02-28T03:11:41;0.78;84.81
74081;SHT31;62438;52.228;6.864;2023-02-28T03:19:03;0.79;84.84
74081;SHT31;62438;52.228;6.864;2023-02-28T03:20:49;0.77;85.12
74081;SHT31;62438;52.228;6.864;2023-02-28T03:25:30;0.77;85.66
74081;SHT31;62438;52.228;6.864;2023-02-28T03:30:06;0.78;85.49
74081;SHT31;62438;52.228;6.864;2023-02-28T03:34:34;0.75;85.07
74081;SHT31;62438;52.228;6.864;2023-02-28T03:36:44;0.77;85.83
74081;SHT31;62438;52.228;6.864;2023-02-28T03:38:56;0.74;84.80
74081;SHT31;62438;52.228;6.864;2023-02-28T03:41:07;0.71;85.35
74081;SHT31;62438;52.228;6.864;2023-02-28T03:43:14;0.75;85.62
74081;SHT31;62438;52.228;6.864;2023-02-28T03:45:29;0.71;85.59
74081;SHT31;62438;52.228;6.864;2023-02-28T03:47:46;0.71;85.06
74081;SHT31;62438;52.228;6.864;2023-02-28T03:49:53;0.69;85.43
74081;SHT31;62438;52.228;6.864;2023-02-28T03:51:56;0.72;85.07
74081;SHT31;62438;52.228;6.864;2023-02-28T03:54:05;0.71;85.86
74081;SHT31;62438;52.228;6.864;2023-02-28T03:56:16;0.68;86.05
74081;SHT31;62438;52.228;6.864;2023-02-28T04:00:38;0.69;85.87
74081;SHT31;62438;52.228;6.864;2023-02-28T04:02:40;0.72;85.57
74081;SHT31;62438;52.228;6.864;2023-02-28T04:04:41;0.74;85.61
74081;SHT31;62438;52.228;6.864;2023-02-28T04:06:50;0.71;85.87
74081;SHT31;62438;52.228;6.864;2023-02-28T04:08:51;0.68;85.71
74081;SHT31;62438;52.228;6.864;2023-02-28T04:11:00;0.72;85.37
74081;SHT31;62438;52.228;6.864;2023-02-28T04:13:01;0.71;85.11
74081;SHT31;62438;52.228;6.864;2023-02-28T04:15:02;0.68;85.59
74081;SHT31;62438;52.228;6.864;2023-02-28T04:17:03;0.61;85.77
74081;SHT31;62438;52.228;6.864;2023-02-28T04:19:05;0.61;85.73
74081;SHT31;62438;52.228;6.864;2023-02-28T04:21:09;0.61;85.95
74081;SHT31;62438;52.228;6.864;2023-02-28T04:23:10;0.58;86.06
74081;SHT31;62438;52.228;6.864;2023-02-28T04:25:10;0.57;86.09
74081;SHT31;62438;52.228;6.864;2023-02-28T04:27:11;0.57;86.38
74081;SHT31;62438;52.228;6.864;2023-02-28T04:29:13;0.53;86.62
74081;SHT31;62438;52.228;6.864;2023-02-28T04:31:14;0.65;86.29
74081;SHT31;62438;52.228;6.864;2023-02-28T04:33:14;0.67;85.98
74081;SHT31;62438;52.228;6.864;2023-02-28T04:35:15;0.64;87.27
74081;SHT31;62438;52.228;6.864;2023-02-28T04:37:15;0.58;86.89
74081;SHT31;62438;52.228;6.864;2023-02-28T04:39:17;0.57;86.57
74081;SHT31;62438;52.228;6.864;2023-02-28T04:41:18;0.57;86.42
74081;SHT31;62438;52.228;6.864;2023-02-28T04:43:19;0.56;86.94
74081;SHT31;62438;52.228;6.864;2023-02-28T04:45:20;0.56;86.95
74081;SHT31;62438;52.228;6.864;2023-02-28T04:47:20;0.58;87.14
74081;SHT31;62438;52.228;6.864;2023-02-28T04:49:21;0.62;86.97
74081;SHT31;62438;52.228;6.864;2023-02-28T04:51:21;0.64;86.64
74081;SHT31;62438;52.228;6.864;2023-02-28T04:53:22;0.62;86.85
74081;SHT31;62438;52.228;6.864;2023-02-28T04:55:22;0.64;86.63
74081;SHT31;62438;52.228;6.864;2023-02-28T04:57:22;0.72;86.39
74081;SHT31;62438;52.228;6.864;2023-02-28T04:59:23;0.71;87.05
74081;SHT31;62438;52.228;6.864;2023-02-28T05:01:26;0.71;86.53
74081;SHT31;62438;52.228;6.864;2023-02-28T05:03:26;0.72;87.03
74081;SHT31;62438;52.228;6.864;2023-02-28T05:05:27;0.69;87.63
74081;SHT31;62438;52.228;6.864;2023-02-28T05:07:28;0.71;87.31
74081;SHT31;62438;52.228;6.864;2023-02-28T05:09:29;0.75;86.23
74081;SHT31;62438;52.228;6.864;2023-02-28T05:11:32;0.74;87.08
74081;SHT31;62438;52.228;6.864;2023-02-28T05:13:36;0.71;87.10
74081;SHT31;62438;52.228;6.864;2023-02-28T05:15:36;0.71;87.35
74081;SHT31;62438;52.228;6.864;2023-02-28T05:17:37;0.67;87.73
74081;SHT31;62438;52.228;6.864;2023-02-28T05:19:37;0.68;87.29
74081;SHT31;62438;52.228;6.864;2023-02-28T05:21:54;0.65;88.06
74081;SHT31;62438;52.228;6.864;2023-02-28T05:23:57;0.65;87.46
74081;SHT31;62438;52.228;6.864;2023-02-28T05:25:57;0.60;87.74
74081;SHT31;62438;52.228;6.864;2023-02-28T05:27:58;0.60;88.07
74081;SHT31;62438;52.228;6.864;2023-02-28T05:29:59;0.57;88.27
74081;SHT31;62438;52.228;6.864;2023-02-28T05:31:59;0.58;88.14
74081;SHT31;62438;52.228;6.864;2023-02-28T05:34:00;0.58;88.43
74081;SHT31;62438;52.228;6.864;2023-02-28T05:36:00;0.56;88.50
74081;SHT31;62438;52.228;6.864;2023-02-28T05:38:01;0.57;88.47
74081;SHT31;62438;52.228;6.864;2023-02-28T05:40:02;0.54;88.88
74081;SHT31;62438;52.228;6.864;2023-02-28T05:42:06;0.53;88.71
74081;SHT31;62438;52.228;6.864;2023-02-28T05:44:06;0.58;88.45
74081;SHT31;62438;52.228;6.864;2023-02-28T05:46:09;0.56;88.66
74081;SHT31;62438;52.228;6.864;2023-02-28T05:48:10;0.53;89.21
74081;SHT31;62438;52.228;6.864;2023-02-28T05:50:11;0.53;88.18
74081;SHT31;62438;52.228;6.864;2023-02-28T05:52:11;0.64;86.23
74081;SHT31;62438;52.228;6.864;2023-02-28T05:54:12;0.68;85.04
74081;SHT31;62438;52.228;6.864;2023-02-28T05:56:12;0.87;82.99
74081;SHT31;62438;52.228;6.864;2023-02-28T05:58:13;0.89;83.18
74081;SHT31;62438;52.228;6.864;2023-02-28T06:00:13;0.91;82.85
74081;SHT31;62438;52.228;6.864;2023-02-28T06:02:17;0.96;81.98
74081;SHT31;62438;52.228;6.864;2023-02-28T06:04:19;0.99;81.82
74081;SHT31;62438;52.228;6.864;2023-02-28T06:06:19;0.98;81.88
74081;SHT31;62438;52.228;6.864;2023-02-28T06:08:20;0.95;81.85
74081;SHT31;62438;52.228;6.864;2023-02-28T06:10:20;1.00;81.56
74081;SHT31;62438;52.228;6.864;2023-02-28T06:12:21;0.98;81.56
74081;SHT31;62438;52.228;6.864;2023-02-28T06:14:21;1.02;81.35
74081;SHT31;62438;52.228;6.864;2023-02-28T06:16:22;0.99;82.03
74081;SHT31;62438;52.228;6.864;2023-02-28T06:18:22;1.06;80.56
74081;SHT31;62438;52.228;6.864;2023-02-28T06:20:23;1.02;81.00
74081;SHT31;62438;52.228;6.864;2023-02-28T06:22:24;1.06;80.12
74081;SHT31;62438;52.228;6.864;2023-02-28T06:24:25;1.06;80.71
74081;SHT31;62438;52.228;6.864;2023-02-28T06:26:28;1.02;80.51
74081;SHT31;62438;52.228;6.864;2023-02-28T06:28:28;1.06;79.22
74081;SHT31;62438;52.228;6.864;2023-02-28T06:30:29;1.08;80.01
74081;SHT31;62438;52.228;6.864;2023-02-28T06:32:31;1.09;79.24
74081;SHT31;62438;52.228;6.864;2023-02-28T06:34:32;1.09;81.39
74081;SHT31;62438;52.228;6.864;2023-02-28T06:36:33;1.06;80.01
74081;SHT31;62438;52.228;6.864;2023-02-28T06:38:34;1.15;78.06
74081;SHT31;62438;52.228;6.864;2023-02-28T06:40:35;1.16;77.27
74081;SHT31;62438;52.228;6.864;2023-02-28T06:42:36;1.16;77.58
74081;SHT31;62438;52.228;6.864;2023-02-28T06:44:36;1.22;78.20
74081;SHT31;62438;52.228;6.864;2023-02-28T06:46:40;1.22;77.91
74081;SHT31;62438;52.228;6.864;2023-02-28T06:48:42;1.33;76.15
74081;SHT31;62438;52.228;6.864;2023-02-28T06:50:42;1.35;76.55
74081;SHT31;62438;52.228;6.864;2023-02-28T06:52:43;1.47;75.48
74081;SHT31;62438;52.228;6.864;2023-02-28T06:54:43;1.51;74.68
74081;SHT31;62438;52.228;6.864;2023-02-28T06:56:44;1.53;74.23
74081;SHT31;62438;52.228;6.864;2023-02-28T06:58:48;1.50;74.59
74081;SHT31;62438;52.228;6.864;2023-02-28T07:00:52;1.50;74.73
74081;SHT31;62438;52.228;6.864;2023-02-28T07:02:53;1.63;73.27
74081;SHT31;62438;52.228;6.864;2023-02-28T07:04:55;1.70;72.88
74081;SHT31;62438;52.228;6.864;2023-02-28T07:06:55;1.73;71.62
74081;SHT31;62438;52.228;6.864;2023-02-28T07:08:57;1.74;72.25
74081;SHT31;62438;52.228;6.864;2023-02-28T07:10:57;1.79;71.71
74081;SHT31;62438;52.228;6.864;2023-02-28T07:12:59;1.81;71.10
74081;SHT31;62438;52.228;6.864;2023-02-28T07:15:00;1.91;71.15
74081;SHT31;62438;52.228;6.864;2023-02-28T07:17:00;1.89;71.59
74081;SHT31;62438;52.228;6.864;2023-02-28T07:19:01;1.87;71.48
74081;SHT31;62438;52.228;6.864;2023-02-28T07:21:03;1.84;71.62
74081;SHT31;62438;52.228;6.864;2023-02-28T07:23:03;1.79;71.87
74081;SHT31;62438;52.228;6.864;2023-02-28T07:25:04;1.74;72.19
74081;SHT31;62438;52.228;6.864;2023-02-28T07:27:05;1.77;71.24
74081;SHT31;62438;52.228;6.864;2023-02-28T07:29:06;1.78;72.57
74081;SHT31;62438;52.228;6.864;2023-02-28T07:31:08;1.81;70.64
74081;SHT31;62438;52.228;6.864;2023-02-28T07:33:09;1.89;70.62
74081;SHT31;62438;52.228;6.864;2023-02-28T07:35:10;1.88;70.74
74081;SHT31;62438;52.228;6.864;2023-02-28T07:37:10;2.04;68.65
74081;SHT31;62438;52.228;6.864;2023-02-28T07:39:11;2.19;68.61
74081;SHT31;62438;52.228;6.864;2023-02-28T07:41:11;2.42;67.13
74081;SHT31;62438;52.228;6.864;2023-02-28T07:43:12;2.79;66.25
74081;SHT31;62438;52.228;6.864;2023-02-28T07:45:13;3.11;64.82
74081;SHT31;62438;52.228;6.864;2023-02-28T07:47:13;3.36;63.38
74081;SHT31;62438;52.228;6.864;2023-02-28T07:49:14;3.48;61.12
74081;SHT31;62438;52.228;6.864;2023-02-28T07:51:14;3.70;59.57
74081;SHT31;62438;52.228;6.864;2023-02-28T07:53:14;3.69;59.96
74081;SHT31;62438;52.228;6.864;2023-02-28T07:55:15;3.56;59.14
74081;SHT31;62438;52.228;6.864;2023-02-28T07:57:17;3.38;59.54
74081;SHT31;62438;52.228;6.864;2023-02-28T07:59:17;3.22;60.16
74081;SHT31;62438;52.228;6.864;2023-02-28T08:01:17;3.25;61.47
74081;SHT31;62438;52.228;6.864;2023-02-28T08:03:20;3.38;59.77
74081;SHT31;62438;52.228;6.864;2023-02-28T08:05:21;3.25;60.44
74081;SHT31;62438;52.228;6.864;2023-02-28T08:07:21;3.25;57.45
74081;SHT31;62438;52.228;6.864;2023-02-28T08:09:22;3.56;58.40
74081;SHT31;62438;52.228;6.864;2023-02-28T08:11:22;3.58;58.38
74081;SHT31;62438;52.228;6.864;2023-02-28T08:13:23;3.32;58.39
74081;SHT31;62438;52.228;6.864;2023-02-28T08:15:24;3.51;59.10
74081;SHT31;62438;52.228;6.864;2023-02-28T08:17:24;3.52;56.72
74081;SHT31;62438;52.228;6.864;2023-02-28T08:19:25;3.38;58.78
74081;SHT31;62438;52.228;6.864;2023-02-28T08:21:25;3.42;55.56
74081;SHT31;62438;52.228;6.864;2023-02-28T08:23:25;3.40;53.83
74081;SHT31;62438;52.228;6.864;2023-02-28T08:25:26;3.40;55.66
74081;SHT31;62438;52.228;6.864;2023-02-28T08:27:26;3.55;54.61
74081;SHT31;62438;52.228;6.864;2023-02-28T08:29:27;3.34;54.87
74081;SHT31;62438;52.228;6.864;2023-02-28T08:31:27;3.16;57.04
74081;SHT31;62438;52.228;6.864;2023-02-28T08:33:28;3.05;54.06
74081;SHT31;62438;52.228;6.864;2023-02-28T08:35:29;3.28;53.10
74081;SHT31;62438;52.228;6.864;2023-02-28T08:37:29;3.31;55.52
74081;SHT31;62438;52.228;6.864;2023-02-28T08:39:29;3.29;54.30
74081;SHT31;62438;52.228;6.864;2023-02-28T08:41:30;3.40;53.63
74081;SHT31;62438;52.228;6.864;2023-02-28T08:43:31;3.29;53.25
74081;SHT31;62438;52.228;6.864;2023-02-28T08:45:31;3.32;51.83
74081;SHT31;62438;52.228;6.864;2023-02-28T08:47:32;3.46;52.03
74081;SHT31;62438;52.228;6.864;2023-02-28T08:49:32;3.60;52.53
74081;SHT31;62438;52.228;6.864;2023-02-28T08:51:33;3.79;49.41
74081;SHT31;62438;52.228;6.864;2023-02-28T08:53:33;3.89;50.99
74081;SHT31;62438;52.228;6.864;2023-02-28T08:55:34;3.94;51.90
74081;SHT31;62438;52.228;6.864;2023-02-28T08:57:34;4.14;50.27
74081;SHT31;62438;52.228;6.864;2023-02-28T08:59:35;4.17;49.50
74081;SHT31;62438;52.228;6.864;2023-02-28T09:01:35;4.32;49.61
74081;SHT31;62438;52.228;6.864;2023-02-28T09:03:43;4.22;47.27
74081;SHT31;62438;52.228;6.864;2023-02-28T09:05:57;4.22;47.82
74081;SHT31;62438;52.228;6.864;2023-02-28T09:07:59;3.89;49.52
74081;SHT31;62438;52.228;6.864;2023-02-28T09:09:59;4.07;49.50
74081;SHT31;62438;52.228;6.864;2023-02-28T09:12:00;4.52;48.42
74081;SHT31;62438;52.228;6.864;2023-02-28T09:14:01;4.46;48.13
74081;SHT31;62438;52.228;6.864;2023-02-28T09:16:03;4.73;46.85
74081;SHT31;62438;52.228;6.864;2023-02-28T09:18:04;4.94;45.90
74081;SHT31;62438;52.228;6.864;2023-02-28T09:20:05;5.10;46.93
74081;SHT31;62438;52.228;6.864;2023-02-28T09:22:06;5.11;46.31
74081;SHT31;62438;52.228;6.864;2023-02-28T09:24:07;5.10;45.30
74081;SHT31;62438;52.228;6.864;2023-02-28T09:26:13;5.28;47.90
74081;SHT31;62438;52.228;6.864;2023-02-28T09:28:14;5.10;46.76
74081;SHT31;62438;52.228;6.864;2023-02-28T09:30:18;5.10;47.09
74081;SHT31;62438;52.228;6.864;2023-02-28T09:36:32;5.58;45.53
74081;SHT31;62438;52.228;6.864;2023-02-28T09:38:33;5.42;45.97
74081;SHT31;62438;52.228;6.864;2023-02-28T09:41:01;5.86;46.48
74081;SHT31;62438;52.228;6.864;2023-02-28T09:43:03;5.78;41.77
74081;SHT31;62438;52.228;6.864;2023-02-28T09:45:10;5.90;42.08
74081;SHT31;62438;52.228;6.864;2023-02-28T09:47:33;5.73;43.75
74081;SHT31;62438;52.228;6.864;2023-02-28T09:49:41;5.92;43.30
74081;SHT31;62438;52.228;6.864;2023-02-28T09:53:44;5.62;41.18
74081;SHT31;62438;52.228;6.864;2023-02-28T09:55:58;5.90;40.55
74081;SHT31;62438;52.228;6.864;2023-02-28T09:58:00;6.03;40.43
74081;SHT31;62438;52.228;6.864;2023-02-28T10:04:57;5.86;41.96
74081;SHT31;62438;52.228;6.864;2023-02-28T10:06:59;6.05;40.52
74081;SHT31;62438;52.228;6.864;2023-02-28T10:09:05;6.30;39.89
74081;SHT31;62438;52.228;6.864;2023-02-28T10:11:12;6.61;40.81
74081;SHT31;62438;52.228;6.864;2023-02-28T10:13:17;6.45;40.07
74081;SHT31;62438;52.228;6.864;2023-02-28T10:15:22;6.26;40.13
74081;SHT31;62438;52.228;6.864;2023-02-28T10:17:26;6.30;40.46
74081;SHT31;62438;52.228;6.864;2023-02-28T10:19:35;6.31;41.88
74081;SHT31;62438;52.228;6.864;2023-02-28T10:21:47;6.37;39.90
74081;SHT31;62438;52.228;6.864;2023-02-28T10:23:53;6.28;40.43
74081;SHT31;62438;52.228;6.864;2023-02-28T10:26:05;6.48;41.04
74081;SHT31;62438;52.228;6.864;2023-02-28T10:28:12;6.38;39.43
74081;SHT31;62438;52.228;6.864;2023-02-28T10:30:13;6.61;39.03
74081;SHT31;62438;52.228;6.864;2023-02-28T10:32:22;6.61;39.86
74081;SHT31;62438;52.228;6.864;2023-02-28T10:34:24;6.47;40.36
74081;SHT31;62438;52.228;6.864;2023-02-28T10:36:24;6.52;40.00
74081;SHT31;62438;52.228;6.864;2023-02-28T10:38:28;6.59;40.19
74081;SHT31;62438;52.228;6.864;2023-02-28T10:40:34;6.96;40.53
74081;SHT31;62438;52.228;6.864;2023-02-28T10:42:35;7.31;38.94
74081;SHT31;62438;52.228;6.864;2023-02-28T10:44:39;6.75;39.21
74081;SHT31;62438;52.228;6.864;2023-02-28T10:46:40;6.79;40.16
74081;SHT31;62438;52.228;6.864;2023-02-28T10:48:45;6.68;39.85
74081;SHT31;62438;52.228;6.864;2023-02-28T10:52:53;6.78;39.71
74081;SHT31;62438;52.228;6.864;2023-02-28T10:55:14;6.91;39.77
74081;SHT31;62438;52.228;6.864;2023-02-28T10:57:20;6.72;39.30
74081;SHT31;62438;52.228;6.864;2023-02-28T10:59:30;7.00;39.63
74081;SHT31;62438;52.228;6.864;2023-02-28T11:01:45;6.91;40.06
74081;SHT31;62438;52.228;6.864;2023-02-28T11:03:49;7.07;39.94
74081;SHT31;62438;52.228;6.864;2023-02-28T11:05:50;7.24;39.68
74081;SHT31;62438;52.228;6.864;2023-02-28T11:08:06;7.43;38.69
74081;SHT31;62438;52.228;6.864;2023-02-28T11:10:19;7.27;40.19
74081;SHT31;62438;52.228;6.864;2023-02-28T11:12:24;7.28;38.99
74081;SHT31;62438;52.228;6.864;2023-02-28T11:14:28;7.02;38.93
74081;SHT31;62438;52.228;6.864;2023-02-28T11:16:39;7.33;39.84
74081;SHT31;62438;52.228;6.864;2023-02-28T11:18:55;7.46;38.21
74081;SHT31;62438;52.228;6.864;2023-02-28T11:20:57;7.46;38.68
74081;SHT31;62438;52.228;6.864;2023-02-28T11:23:04;7.73;39.06
74081;SHT31;62438;52.228;6.864;2023-02-28T11:25:16;7.13;38.61
74081;SHT31;62438;52.228;6.864;2023-02-28T11:29:32;7.61;38.51
74081;SHT31;62438;52.228;6.864;2023-02-28T11:31:33;7.70;39.31
74081;SHT31;62438;52.228;6.864;2023-02-28T11:33:49;7.33;38.38
74081;SHT31;62438;52.228;6.864;2023-02-28T11:35:52;7.57;39.38
74081;SHT31;62438;52.228;6.864;2023-02-28T11:37:54;7.61;39.14
74081;SHT31;62438;52.228;6.864;2023-02-28T11:39:55;7.75;38.47
74081;SHT31;62438;52.228;6.864;2023-02-28T11:42:19;7.96;39.01
74081;SHT31;62438;52.228;6.864;2023-02-28T11:46:52;7.47;38.86
74081;SHT31;62438;52.228;6.864;2023-02-28T11:55:23;7.46;38.29
74081;SHT31;62438;52.228;6.864;2023-02-28T12:02:49;7.48;38.83
74081;SHT31;62438;52.228;6.864;2023-02-28T12:21:23;6.65;39.81
74081;SHT31;62438;52.228;6.864;2023-02-28T12:27:48;6.82;39.70
74081;SHT31;62438;52.228;6.864;2023-02-28T12:30:24;7.12;40.27
74081;SHT31;62438;52.228;6.864;2023-02-28T12:32:30;6.89;40.06
74081;SHT31;62438;52.228;6.864;2023-02-28T12:34:38;6.78;41.95
74081;SHT31;62438;52.228;6.864;2023-02-28T12:36:41;6.69;41.13
74081;SHT31;62438;52.228;6.864;2023-02-28T12:38:47;6.55;40.35
74081;SHT31;62438;52.228;6.864;2023-02-28T12:40:53;6.57;41.49
74081;SHT31;62438;52.228;6.864;2023-02-28T12:42:58;6.55;40.97
74081;SHT31;62438;52.228;6.864;2023-02-28T12:47:17;6.93;40.59
74081;SHT31;62438;52.228;6.864;2023-02-28T12:49:29;6.91;40.12
74081;SHT31;62438;52.228;6.864;2023-02-28T12:51:32;7.07;39.06
74081;SHT31;62438;52.228;6.864;2023-02-28T12:53:57;6.95;39.93
74081;SHT31;62438;52.228;6.864;2023-02-28T12:58:43;6.84;40.68
74081;SHT31;62438;52.228;6.864;2023-02-28T13:04:00;6.72;40.97
74081;SHT31;62438;52.228;6.864;2023-02-28T13:10:57;6.58;41.39
74081;SHT31;62438;52.228;6.864;2023-02-28T13:13:03;6.61;41.36
74081;SHT31;62438;52.228;6.864;2023-02-28T13:15:40;6.74;41.45
74081;SHT31;62438;52.228;6.864;2023-02-28T13:17:39;6.77;41.51
74081;SHT31;62438;52.228;6.864;2023-02-28T13:19:44;7.13;41.99
74081;SHT31;62438;52.228;6.864;2023-02-28T13:21:47;7.03;40.90
74081;SHT31;62438;52.228;6.864;2023-02-28T13:25:58;7.33;40.23
74081;SHT31;62438;52.228;6.864;2023-02-28T13:28:01;7.64;38.83
74081;SHT31;62438;52.228;6.864;2023-02-28T13:32:42;7.77;39.62
74081;SHT31;62438;52.228;6.864;2023-02-28T13:41:43;7.15;40.58
74081;SHT31;62438;52.228;6.864;2023-02-28T13:44:23;7.06;41.18
74081;SHT31;62438;52.228;6.864;2023-02-28T13:46:24;6.98;42.32
74081;SHT31;62438;52.228;6.864;2023-02-28T13:48:26;6.91;41.50
74081;SHT31;62438;52.228;6.864;2023-02-28T13:50:38;7.15;42.05
74081;SHT31;62438;52.228;6.864;2023-02-28T14:00:07;7.36;40.66
74081;SHT31;62438;52.228;6.864;2023-02-28T14:06:48;7.00;41.15
74081;SHT31;62438;52.228;6.864;2023-02-28T14:08:55;6.72;41.05
74081;SHT31;62438;52.228;6.864;2023-02-28T14:11:06;6.65;42.30
74081;SHT31;62438;52.228;6.864;2023-02-28T14:13:45;6.54;41.52
74081;SHT31;62438;52.228;6.864;2023-02-28T14:16:06;6.45;40.92
74081;SHT31;62438;52.228;6.864;2023-02-28T14:18:28;6.42;39.96
74081;SHT31;62438;52.228;6.864;2023-02-28T14:20:29;6.41;40.81
74081;SHT31;62438;52.228;6.864;2023-02-28T14:25:38;6.33;42.25
74081;SHT31;62438;52.228;6.864;2023-02-28T14:28:01;6.36;42.57
74081;SHT31;62438;52.228;6.864;2023-02-28T14:35:14;6.51;41.99
74081;SHT31;62438;52.228;6.864;2023-02-28T14:37:20;6.38;42.70
74081;SHT31;62438;52.228;6.864;2023-02-28T14:39:25;6.14;42.23
74081;SHT31;62438;52.228;6.864;2023-02-28T14:43:35;6.37;42.95
74081;SHT31;62438;52.228;6.864;2023-02-28T14:45:35;6.48;42.96
74081;SHT31;62438;52.228;6.864;2023-02-28T14:47:37;6.30;42.69
74081;SHT31;62438;52.228;6.864;2023-02-28T14:49:43;6.21;42.48
74081;SHT31;62438;52.228;6.864;2023-02-28T14:51:45;6.09;42.47
74081;SHT31;62438;52.228;6.864;2023-02-28T14:53:56;6.13;44.22
74081;SHT31;62438;52.228;6.864;2023-02-28T14:55:57;6.13;43.45
74081;SHT31;62438;52.228;6.864;2023-02-28T14:58:17;6.17;43.37
74081;SHT31;62438;52.228;6.864;2023-02-28T15:00:32;6.11;44.57
74081;SHT31;62438;52.228;6.864;2023-02-28T15:02:36;6.00;43.36
74081;SHT31;62438;52.228;6.864;2023-02-28T15:04:37;5.96;45.26
74081;SHT31;62438;52.228;6.864;2023-02-28T15:06:37;6.11;44.21
74081;SHT31;62438;52.228;6.864;2023-02-28T15:08:38;5.99;44.42
74081;SHT31;62438;52.228;6.864;2023-02-28T15:10:42;5.99;44.30
74081;SHT31;62438;52.228;6.864;2023-02-28T15:12:51;5.99;44.61
74081;SHT31;62438;52.228;6.864;2023-02-28T15:14:53;5.85;44.38
74081;SHT31;62438;52.228;6.864;2023-02-28T15:16:59;5.76;44.53
74081;SHT31;62438;52.228;6.864;2023-02-28T15:19:05;5.62;44.16
74081;SHT31;62438;52.228;6.864;2023-02-28T15:21:12;5.69;43.85
74081;SHT31;62438;52.228;6.864;2023-02-28T15:23:14;5.75;44.76
74081;SHT31;62438;52.228;6.864;2023-02-28T15:25:20;5.79;44.86
74081;SHT31;62438;52.228;6.864;2023-02-28T15:27:23;5.85;43.87
74081;SHT31;62438;52.228;6.864;2023-02-28T15:29:28;5.80;44.41